• Join FlightAware (Why Join?)
  • Login
  • US Flag 
02:25AM EDT


 

Airport Tracker/Info


-or-


 

Live Flight TrackerFlight Track Log ✈ ASQ4204 ✈ 22-May-2012 ✈ KJAX - KEWR

Flight Track Log - Related Links

Times and Time Zones

All times are in EDT time to prevent confusion due to time zone crossing. See the ASQ4204 flight status page for this flight to view local times or setup timezone preferences in your user account.

Time Position Orientation Groundspeed Altitude Reporting Facility
EDT Latitude Longitude Course Direction KTS MPH feet Rate Location/Type
08:16PM 31.0191 -82.0836 18° North  Level FlightAware Approximate
08:17PM 31.1335 -82.0790 19° North  Level FlightAware Approximate
08:18PM 31.1573 -82.2073 23° Northeast  Level FlightAware Approximate
08:19PM 31.2495 -82.2862 26° Northeast  Level FlightAware Approximate
08:20PM 31.3636 -82.2756 27° Northeast  Level FlightAware Approximate
08:21PM 31.4777 -82.2648 29° Northeast  Level FlightAware Approximate
08:22PM 31.5918 -82.2541 31° Northeast  Level FlightAware Approximate
08:23PM 31.7059 -82.2433 33° Northeast  Level FlightAware Approximate
08:24PM 31.8200 -82.2325 36° Northeast  Level FlightAware Approximate
08:25PM 31.9341 -82.2217 39° Northeast  Level FlightAware Approximate
08:26PM 32.0447 -82.1888 42° Northeast  Level FlightAware Approximate
08:27PM 32.1552 -82.1559 45° Northeast  Level FlightAware Approximate
08:28PM 32.2623 -82.1096 48° Northeast  Level FlightAware Approximate
08:29PM 32.3694 -82.0632 53° Northeast  Level FlightAware Approximate
08:30PM 32.4765 -82.0167 59° Northeast  Level FlightAware Approximate
08:31PM 32.5835 -81.9700 66° East  Level FlightAware Approximate
08:32PM 32.6905 -81.9233 77° East  Level FlightAware Approximate
08:33PM 32.7900 -81.8571 89° East  Level FlightAware Approximate
08:34PM 32.8895 -81.7907 106° East  Level FlightAware Approximate
08:35PM 32.9889 -81.7242 125° Southeast  Level FlightAware Approximate
08:36PM 32.7944 -81.3925 19° North 425 489 31,800  Level Jacksonville Center
08:41PM 33.3175 -81.1725 19° North 425 489 35,400 720 Climbing Jacksonville Center
08:42PM 33.4297 -81.1256 20° North 425 489 36,100 720 Climbing Jacksonville Center
08:43PM 33.5436 -81.0758 19° North 425 489 36,900 420 Climbing Jacksonville Center
08:44PM 33.6558 -81.0286 33° Northeast 425 489 37,000  Climbing Jacksonville Center
08:45PM 33.7567 -80.9492 34° Northeast 425 489 36,900  Descending Jacksonville Center
08:46PM 33.8597 -80.8669 34° Northeast 430 495 37,000  Climbing Jacksonville Center
08:47PM 33.9689 -80.7792 33° Northeast 444 511 37,000  Level Jacksonville Center
08:48PM 34.0761 -80.6964 32° Northeast 456 525 37,000  Level Jacksonville Center
08:49PM 34.2433 -80.5683 35° Northeast 454 522 37,000  Level Washington Center
08:50PM 34.3558 -80.4722 33° Northeast 468 539 37,000  Level Washington Center
08:51PM 34.4700 -80.3831 34° Northeast 481 554 37,000  Level Washington Center
08:52PM 34.5800 -80.2939 38° Northeast 481 554 37,000  Level Washington Center
08:53PM 34.6819 -80.1961 46° Northeast 473 544 37,000  Level Washington Center
08:54PM 34.7697 -80.0847 42° Northeast 447 514 37,000  Level Washington Center
08:55PM 34.8633 -79.9811 42° Northeast 447 514 37,000  Level Washington Center
08:56PM 34.9544 -79.8797 47° Northeast 447 514 37,000  Level Washington Center
08:57PM 35.0419 -79.7650 38° Northeast 447 514 37,000  Level Washington Center
08:58PM 35.1433 -79.6686 32° Northeast 452 520 37,000  Level Washington Center
08:59PM 35.2419 -79.5922 37° Northeast 459 528 37,000  Level Washington Center
09:00PM 35.3453 -79.4956 42° Northeast 459 528 37,000  Level Washington Center
09:01PM 35.4342 -79.3981 41° Northeast 439 505 37,000  Level Washington Center
09:02PM 35.5269 -79.3003 38° Northeast 414 476 37,000  Level Washington Center
09:03PM 35.6022 -79.2272 40° Northeast 384 442 37,000  Level Washington Center
09:04PM 35.6947 -79.1317 36° Northeast 384 442 37,000  Level Washington Center
09:05PM 35.7869 -79.0486 32° Northeast 391 450 37,000  Level Washington Center
09:06PM 35.8872 -78.9711 31° Northeast 404 465 37,000  Level Washington Center
09:07PM 35.9917 -78.8933 34° Northeast 423 487 37,000  Level Washington Center
09:08PM 36.0919 -78.8103 35° Northeast 428 493 37,000  Level Washington Center
09:09PM 36.1925 -78.7217 36° Northeast 441 507 37,000  Level Washington Center
09:10PM 36.2842 -78.6378 35° Northeast 448 516 37,000  Level Washington Center
09:11PM 36.3908 -78.5464 38° Northeast 458 527 37,000  Level Washington Center
09:12PM 36.4914 -78.4494 42° Northeast 458 527 37,000  Level Washington Center
09:13PM 36.5856 -78.3442 45° Northeast 452 520 37,000  Level Washington Center
09:14PM 36.6736 -78.2333 50° Northeast 442 509 37,000  Level Washington Center
09:15PM 36.7511 -78.1167 49° Northeast 442 509 37,000  Level Washington Center
09:16PM 36.8331 -77.9975 49° Northeast 442 509 37,000  Level Washington Center
09:17PM 36.9125 -77.8831 50° Northeast 442 509 37,000  Level Washington Center
09:18PM 36.9897 -77.7683 49° Northeast 442 509 37,000  Level Washington Center
09:19PM 37.0708 -77.6533 44° Northeast 442 509 37,000  Level Washington Center
09:20PM 37.1583 -77.5489 42° Northeast 436 502 37,000  Level Washington Center
09:21PM 37.2494 -77.4444 39° Northeast 431 496 37,000  Level Washington Center
09:22PM 37.3450 -77.3472 37° Northeast 436 502 37,000  Level Washington Center
09:23PM 37.4464 -77.2503 30° Northeast 446 513 37,000  Level Washington Center
09:24PM 37.5558 -77.1714 17° North 451 519 37,000  Level Washington Center
09:25PM 37.6775 -77.1242 16° North 446 513 37,000 -240 Level Washington Center
09:26PM 37.7992 -77.0792 17° North 451 519 36,600 -540 Descending Washington Center
09:27PM 37.9183 -77.0342 16° North 451 519 36,000 -300 Descending Washington Center
09:28PM 38.0358 -76.9917 16° North 441 507 36,000  Level Washington Center
09:29PM 38.1531 -76.9489 17° North 436 502 36,000  Level Washington Center
09:30PM 38.2642 -76.9061 16° North 426 490 36,000  Level Washington Center
09:31PM 38.3897 -76.8606 16° North 426 490 36,000  Level Washington Center
09:32PM 38.4964 -76.8225 16° North 426 490 36,000  Level Washington Center
09:33PM 38.6178 -76.7767 24° Northeast 437 503 36,000 -60 Level Washington Center
09:34PM 38.7350 -76.7094 39° Northeast 442 509 35,900 -780 Descending Washington Center
09:35PM 38.8319 -76.6069 43° Northeast 437 503 34,500 -1,440 Descending Washington Center
09:36PM 38.9225 -76.4989 41° Northeast 445 512 33,100 -1,500 Descending Washington Center
09:37PM 39.0108 -76.3983 42° Northeast 434 499 31,500 -1,620 Descending Washington Center
09:38PM 39.0947 -76.3003 42° Northeast 421 484 29,900 -1,620 Descending Washington Center
09:39PM 39.1806 -76.2019 41° Northeast 409 471 28,300 -1,500 Descending Washington Center
09:40PM 39.2833 -76.0850 45° Northeast 421 484 26,900 -1,260 Descending Washington Center
09:41PM 39.3714 -75.9728 41° Northeast 431 496 25,900 -1,260 Descending Washington Center
09:42PM 39.4675 -75.8631 42° Northeast 443 510 24,400 -1,380 Descending Washington Center
09:43PM 39.5425 -75.7744 42° Northeast 449 517 23,200 -1,380 Descending Washington Center
09:44PM 39.6386 -75.6617 44° Northeast 443 510 21,700 -1,500 Descending Washington Center
09:45PM 39.7239 -75.5564 43° Northeast 426 490 20,200 -1,620 Descending Washington Center
09:46PM 39.8094 -75.4511 42° Northeast 420 483 18,500 -1,920 Descending Washington Center
09:47PM 39.8906 -75.3561 44° Northeast 414 476 16,500 -2,040 Descending Washington Center
09:48PM 39.9672 -75.2611 44° Northeast 388 447 14,500 -2,040 Descending Washington Center